Cataldo, Idaho
Current Conditions -  °F | °C
As of 1:35 PM on Sunday 21 Dec 2014 (Local Time) from KCOE Reporting Station
Clear Clear  
Wind Chill: 40°   Ceiling: Unl
Heat Index: 46°   Visibility: 10mi
Dew Point: 37°   Wind: 16mph
Humidity: 71%   Direction: 250°WSW
Pressure: 29.78"   Gusts: 25mph
Location:  47.55°N, 116.33°W
Report Text: KCOE 212135Z AUTO 25014G22KT 10SM CLR 08/03 A2978 RMK AO1
Loading
Personal Weather Stations






























Interactive Weather Map New forecast layout! Learn more

10-Day Weather Forecast

Advertisements
Track Severe Weather on mobile